sensor_id;sensor_type;location;lat;lon;timestamp;P1;durP1;ratioP1;P2;durP2;ratioP2
59486;SDS011;45298;54.918;73.504;2022-08-27T00:00:50;43.72;;;24.77;;
59486;SDS011;45298;54.918;73.504;2022-08-27T00:03:18;43.42;;;25.08;;
59486;SDS011;45298;54.918;73.504;2022-08-27T00:05:47;42.42;;;24.95;;
59486;SDS011;45298;54.918;73.504;2022-08-27T00:08:16;47.17;;;25.50;;
59486;SDS011;45298;54.918;73.504;2022-08-27T00:10:45;44.42;;;26.08;;
59486;SDS011;45298;54.918;73.504;2022-08-27T00:13:13;51.03;;;27.67;;
59486;SDS011;45298;54.918;73.504;2022-08-27T00:15:43;135.90;;;76.63;;
59486;SDS011;45298;54.918;73.504;2022-08-27T00:18:11;50.05;;;27.80;;
59486;SDS011;45298;54.918;73.504;2022-08-27T00:20:40;46.53;;;26.02;;
59486;SDS011;45298;54.918;73.504;2022-08-27T00:23:10;40.67;;;24.13;;
59486;SDS011;45298;54.918;73.504;2022-08-27T00:25:39;38.33;;;23.38;;
59486;SDS011;45298;54.918;73.504;2022-08-27T00:28:08;62.08;;;35.10;;
59486;SDS011;45298;54.918;73.504;2022-08-27T00:30:37;53.03;;;30.83;;
59486;SDS011;45298;54.918;73.504;2022-08-27T00:33:08;49.95;;;25.33;;
59486;SDS011;45298;54.918;73.504;2022-08-27T00:35:46;44.30;;;25.50;;
59486;SDS011;45298;54.918;73.504;2022-08-27T00:38:15;51.63;;;29.05;;
59486;SDS011;45298;54.918;73.504;2022-08-27T00:40:52;54.05;;;28.50;;
59486;SDS011;45298;54.918;73.504;2022-08-27T00:43:28;52.58;;;29.02;;
59486;SDS011;45298;54.918;73.504;2022-08-27T00:46:04;57.08;;;31.35;;
59486;SDS011;45298;54.918;73.504;2022-08-27T00:48:38;63.13;;;32.60;;
59486;SDS011;45298;54.918;73.504;2022-08-27T00:51:07;84.93;;;38.63;;
59486;SDS011;45298;54.918;73.504;2022-08-27T00:53:35;72.70;;;32.97;;
59486;SDS011;45298;54.918;73.504;2022-08-27T00:56:09;63.88;;;33.78;;
59486;SDS011;45298;54.918;73.504;2022-08-27T00:58:41;46.58;;;24.95;;
59486;SDS011;45298;54.918;73.504;2022-08-27T01:01:15;42.58;;;23.58;;
59486;SDS011;45298;54.918;73.504;2022-08-27T01:03:48;53.72;;;28.98;;
59486;SDS011;45298;54.918;73.504;2022-08-27T01:06:19;38.08;;;21.85;;
59486;SDS011;45298;54.918;73.504;2022-08-27T01:08:53;39.33;;;24.75;;
59486;SDS011;45298;54.918;73.504;2022-08-27T01:11:26;40.85;;;22.80;;
59486;SDS011;45298;54.918;73.504;2022-08-27T01:13:55;44.65;;;22.52;;
59486;SDS011;45298;54.918;73.504;2022-08-27T01:16:30;41.63;;;22.25;;
59486;SDS011;45298;54.918;73.504;2022-08-27T01:19:03;39.50;;;21.95;;
59486;SDS011;45298;54.918;73.504;2022-08-27T01:27:27;37.97;;;22.02;;
59486;SDS011;45298;54.918;73.504;2022-08-27T01:29:58;32.45;;;20.90;;
59486;SDS011;45298;54.918;73.504;2022-08-27T01:32:28;41.10;;;21.80;;
59486;SDS011;45298;54.918;73.504;2022-08-27T01:35:01;36.55;;;21.95;;
59486;SDS011;45298;54.918;73.504;2022-08-27T01:37:32;38.85;;;22.95;;
59486;SDS011;45298;54.918;73.504;2022-08-27T01:40:02;39.13;;;22.67;;
59486;SDS011;45298;54.918;73.504;2022-08-27T01:42:35;43.97;;;26.55;;
59486;SDS011;45298;54.918;73.504;2022-08-27T01:45:09;39.03;;;20.95;;
59486;SDS011;45298;54.918;73.504;2022-08-27T01:47:43;35.40;;;20.73;;
59486;SDS011;45298;54.918;73.504;2022-08-27T01:50:13;38.30;;;21.25;;
59486;SDS011;45298;54.918;73.504;2022-08-27T01:52:45;37.15;;;21.10;;
59486;SDS011;45298;54.918;73.504;2022-08-27T01:55:15;47.08;;;22.00;;
59486;SDS011;45298;54.918;73.504;2022-08-27T01:57:45;42.88;;;21.38;;
59486;SDS011;45298;54.918;73.504;2022-08-27T02:00:19;41.38;;;20.67;;
59486;SDS011;45298;54.918;73.504;2022-08-27T02:02:50;38.10;;;21.40;;
59486;SDS011;45298;54.918;73.504;2022-08-27T02:05:18;40.35;;;20.92;;
59486;SDS011;45298;54.918;73.504;2022-08-27T02:07:47;39.63;;;19.90;;
59486;SDS011;45298;54.918;73.504;2022-08-27T02:10:19;38.47;;;20.40;;
59486;SDS011;45298;54.918;73.504;2022-08-27T02:12:51;42.00;;;20.98;;
59486;SDS011;45298;54.918;73.504;2022-08-27T02:15:20;50.63;;;21.95;;
59486;SDS011;45298;54.918;73.504;2022-08-27T02:17:50;53.53;;;24.98;;
59486;SDS011;45298;54.918;73.504;2022-08-27T02:20:20;50.78;;;24.85;;
59486;SDS011;45298;54.918;73.504;2022-08-27T02:22:51;42.75;;;21.33;;
59486;SDS011;45298;54.918;73.504;2022-08-27T02:25:22;57.50;;;24.25;;
59486;SDS011;45298;54.918;73.504;2022-08-27T02:27:56;47.85;;;22.65;;
59486;SDS011;45298;54.918;73.504;2022-08-27T02:30:29;41.97;;;21.13;;
59486;SDS011;45298;54.918;73.504;2022-08-27T02:33:00;37.88;;;21.23;;
59486;SDS011;45298;54.918;73.504;2022-08-27T02:35:32;40.42;;;21.88;;
59486;SDS011;45298;54.918;73.504;2022-08-27T02:38:06;40.65;;;21.85;;
59486;SDS011;45298;54.918;73.504;2022-08-27T02:40:35;45.38;;;22.17;;
59486;SDS011;45298;54.918;73.504;2022-08-27T02:43:06;40.83;;;22.67;;
59486;SDS011;45298;54.918;73.504;2022-08-27T02:45:41;40.72;;;22.42;;
59486;SDS011;45298;54.918;73.504;2022-08-27T02:48:10;41.47;;;22.35;;
59486;SDS011;45298;54.918;73.504;2022-08-27T02:50:39;49.28;;;23.77;;
59486;SDS011;45298;54.918;73.504;2022-08-27T02:53:08;49.58;;;23.80;;
59486;SDS011;45298;54.918;73.504;2022-08-27T02:55:37;49.58;;;25.60;;
59486;SDS011;45298;54.918;73.504;2022-08-27T02:58:07;56.63;;;26.48;;
59486;SDS011;45298;54.918;73.504;2022-08-27T03:00:36;51.83;;;25.55;;
59486;SDS011;45298;54.918;73.504;2022-08-27T03:03:05;55.00;;;28.38;;
59486;SDS011;45298;54.918;73.504;2022-08-27T03:05:33;56.53;;;28.23;;
59486;SDS011;45298;54.918;73.504;2022-08-27T03:08:03;57.30;;;28.55;;
59486;SDS011;45298;54.918;73.504;2022-08-27T03:10:32;53.90;;;27.80;;
59486;SDS011;45298;54.918;73.504;2022-08-27T03:13:03;59.90;;;28.17;;
59486;SDS011;45298;54.918;73.504;2022-08-27T03:15:32;53.83;;;25.95;;
59486;SDS011;45298;54.918;73.504;2022-08-27T03:18:01;69.63;;;34.05;;
59486;SDS011;45298;54.918;73.504;2022-08-27T03:20:52;71.20;;;31.60;;
59486;SDS011;45298;54.918;73.504;2022-08-27T03:23:24;56.83;;;30.20;;
59486;SDS011;45298;54.918;73.504;2022-08-27T03:25:55;59.10;;;31.10;;
59486;SDS011;45298;54.918;73.504;2022-08-27T03:28:27;63.45;;;33.20;;
59486;SDS011;45298;54.918;73.504;2022-08-27T03:31:04;72.97;;;36.20;;
59486;SDS011;45298;54.918;73.504;2022-08-27T03:33:36;64.80;;;30.33;;
59486;SDS011;45298;54.918;73.504;2022-08-27T03:36:06;62.33;;;32.08;;
59486;SDS011;45298;54.918;73.504;2022-08-27T03:38:36;59.17;;;30.42;;
59486;SDS011;45298;54.918;73.504;2022-08-27T03:41:05;60.65;;;30.83;;
59486;SDS011;45298;54.918;73.504;2022-08-27T03:43:34;68.53;;;33.00;;
59486;SDS011;45298;54.918;73.504;2022-08-27T03:46:03;58.67;;;31.27;;
59486;SDS011;45298;54.918;73.504;2022-08-27T03:48:34;65.47;;;32.75;;
59486;SDS011;45298;54.918;73.504;2022-08-27T03:51:04;63.28;;;32.00;;
59486;SDS011;45298;54.918;73.504;2022-08-27T03:53:35;77.05;;;33.70;;
59486;SDS011;45298;54.918;73.504;2022-08-27T03:56:06;70.40;;;31.83;;
59486;SDS011;45298;54.918;73.504;2022-08-27T03:58:35;61.28;;;32.60;;
59486;SDS011;45298;54.918;73.504;2022-08-27T04:01:05;69.32;;;32.72;;
59486;SDS011;45298;54.918;73.504;2022-08-27T04:03:35;70.72;;;32.67;;
59486;SDS011;45298;54.918;73.504;2022-08-27T04:06:04;65.20;;;32.22;;
59486;SDS011;45298;54.918;73.504;2022-08-27T04:08:34;62.63;;;31.13;;
59486;SDS011;45298;54.918;73.504;2022-08-27T04:11:06;68.93;;;31.38;;
59486;SDS011;45298;54.918;73.504;2022-08-27T04:13:35;78.55;;;34.45;;
59486;SDS011;45298;54.918;73.504;2022-08-27T04:16:04;72.90;;;34.08;;
59486;SDS011;45298;54.918;73.504;2022-08-27T04:18:33;89.65;;;36.17;;
59486;SDS011;45298;54.918;73.504;2022-08-27T04:21:08;85.95;;;36.20;;
59486;SDS011;45298;54.918;73.504;2022-08-27T04:23:40;76.72;;;33.50;;
59486;SDS011;45298;54.918;73.504;2022-08-27T04:26:10;72.70;;;32.67;;
59486;SDS011;45298;54.918;73.504;2022-08-27T04:28:39;72.28;;;32.13;;
59486;SDS011;45298;54.918;73.504;2022-08-27T04:31:14;66.50;;;30.90;;
59486;SDS011;45298;54.918;73.504;2022-08-27T04:33:44;66.30;;;30.20;;
59486;SDS011;45298;54.918;73.504;2022-08-27T04:36:17;118.10;;;35.70;;
59486;SDS011;45298;54.918;73.504;2022-08-27T04:38:47;84.72;;;33.33;;
59486;SDS011;45298;54.918;73.504;2022-08-27T04:41:15;80.35;;;32.25;;
59486;SDS011;45298;54.918;73.504;2022-08-27T04:43:49;82.25;;;32.15;;
59486;SDS011;45298;54.918;73.504;2022-08-27T04:46:21;62.67;;;30.25;;
59486;SDS011;45298;54.918;73.504;2022-08-27T04:48:56;58.92;;;28.98;;
59486;SDS011;45298;54.918;73.504;2022-08-27T04:51:26;54.67;;;26.25;;
59486;SDS011;45298;54.918;73.504;2022-08-27T04:53:55;51.97;;;25.30;;
59486;SDS011;45298;54.918;73.504;2022-08-27T04:56:27;44.22;;;22.77;;
59486;SDS011;45298;54.918;73.504;2022-08-27T04:58:56;56.78;;;23.83;;
59486;SDS011;45298;54.918;73.504;2022-08-27T05:01:26;51.00;;;25.00;;
59486;SDS011;45298;54.918;73.504;2022-08-27T05:03:56;82.97;;;28.50;;
59486;SDS011;45298;54.918;73.504;2022-08-27T05:06:26;89.22;;;29.70;;
59486;SDS011;45298;54.918;73.504;2022-08-27T05:08:55;87.15;;;31.08;;
59486;SDS011;45298;54.918;73.504;2022-08-27T05:11:27;106.72;;;31.73;;
59486;SDS011;45298;54.918;73.504;2022-08-27T05:14:06;92.57;;;30.95;;
59486;SDS011;45298;54.918;73.504;2022-08-27T05:16:36;72.72;;;28.70;;
59486;SDS011;45298;54.918;73.504;2022-08-27T05:19:10;102.90;;;29.02;;
59486;SDS011;45298;54.918;73.504;2022-08-27T05:21:46;81.68;;;27.17;;
59486;SDS011;45298;54.918;73.504;2022-08-27T05:24:16;91.05;;;33.97;;
59486;SDS011;45298;54.918;73.504;2022-08-27T05:26:45;95.93;;;33.03;;
59486;SDS011;45298;54.918;73.504;2022-08-27T05:29:15;67.78;;;24.85;;
59486;SDS011;45298;54.918;73.504;2022-08-27T05:31:44;53.03;;;23.17;;
59486;SDS011;45298;54.918;73.504;2022-08-27T05:34:15;50.00;;;22.08;;
59486;SDS011;45298;54.918;73.504;2022-08-27T05:36:50;55.40;;;24.98;;
59486;SDS011;45298;54.918;73.504;2022-08-27T05:39:19;47.20;;;19.73;;
59486;SDS011;45298;54.918;73.504;2022-08-27T05:41:48;42.85;;;18.38;;
59486;SDS011;45298;54.918;73.504;2022-08-27T05:44:19;35.33;;;19.65;;
59486;SDS011;45298;54.918;73.504;2022-08-27T05:47:07;32.25;;;17.38;;
59486;SDS011;45298;54.918;73.504;2022-08-27T05:49:37;34.08;;;15.93;;
59486;SDS011;45298;54.918;73.504;2022-08-27T05:52:07;44.92;;;17.75;;
59486;SDS011;45298;54.918;73.504;2022-08-27T05:54:37;50.53;;;19.17;;
59486;SDS011;45298;54.918;73.504;2022-08-27T05:57:07;59.90;;;17.83;;
59486;SDS011;45298;54.918;73.504;2022-08-27T05:59:36;57.25;;;19.17;;
59486;SDS011;45298;54.918;73.504;2022-08-27T06:02:23;47.83;;;19.00;;
59486;SDS011;45298;54.918;73.504;2022-08-27T06:04:52;63.20;;;20.25;;
59486;SDS011;45298;54.918;73.504;2022-08-27T06:07:20;60.15;;;19.30;;
59486;SDS011;45298;54.918;73.504;2022-08-27T06:09:49;59.70;;;18.60;;
59486;SDS011;45298;54.918;73.504;2022-08-27T06:12:18;42.58;;;14.98;;
59486;SDS011;45298;54.918;73.504;2022-08-27T06:14:54;32.60;;;16.30;;
59486;SDS011;45298;54.918;73.504;2022-08-27T06:17:23;37.63;;;14.68;;
59486;SDS011;45298;54.918;73.504;2022-08-27T06:19:52;51.70;;;14.68;;
59486;SDS011;45298;54.918;73.504;2022-08-27T06:22:20;63.38;;;16.35;;
59486;SDS011;45298;54.918;73.504;2022-08-27T06:24:49;36.78;;;13.65;;
59486;SDS011;45298;54.918;73.504;2022-08-27T06:27:18;27.83;;;12.90;;
59486;SDS011;45298;54.918;73.504;2022-08-27T06:29:47;28.88;;;12.45;;
59486;SDS011;45298;54.918;73.504;2022-08-27T06:32:16;26.83;;;11.60;;
59486;SDS011;45298;54.918;73.504;2022-08-27T06:34:45;46.65;;;13.02;;
59486;SDS011;45298;54.918;73.504;2022-08-27T06:37:14;48.25;;;13.60;;
59486;SDS011;45298;54.918;73.504;2022-08-27T06:39:43;19.30;;;9.90;;
59486;SDS011;45298;54.918;73.504;2022-08-27T06:42:11;26.77;;;10.95;;
59486;SDS011;45298;54.918;73.504;2022-08-27T06:44:40;19.95;;;7.35;;
59486;SDS011;45298;54.918;73.504;2022-08-27T06:47:09;17.13;;;8.18;;
59486;SDS011;45298;54.918;73.504;2022-08-27T06:49:39;45.72;;;14.88;;
59486;SDS011;45298;54.918;73.504;2022-08-27T06:52:13;23.02;;;10.50;;
59486;SDS011;45298;54.918;73.504;2022-08-27T06:54:43;38.13;;;12.38;;
59486;SDS011;45298;54.918;73.504;2022-08-27T06:57:12;22.63;;;8.75;;
59486;SDS011;45298;54.918;73.504;2022-08-27T06:59:41;18.90;;;8.90;;
59486;SDS011;45298;54.918;73.504;2022-08-27T07:02:11;24.70;;;10.63;;
59486;SDS011;45298;54.918;73.504;2022-08-27T07:04:40;32.72;;;12.30;;
59486;SDS011;45298;54.918;73.504;2022-08-27T07:07:09;20.40;;;8.07;;
59486;SDS011;45298;54.918;73.504;2022-08-27T07:09:39;18.13;;;7.10;;
59486;SDS011;45298;54.918;73.504;2022-08-27T07:12:08;27.65;;;10.10;;
59486;SDS011;45298;54.918;73.504;2022-08-27T07:14:37;24.23;;;9.20;;
59486;SDS011;45298;54.918;73.504;2022-08-27T07:17:06;24.83;;;10.07;;
59486;SDS011;45298;54.918;73.504;2022-08-27T07:19:42;21.08;;;9.00;;
59486;SDS011;45298;54.918;73.504;2022-08-27T07:22:11;20.70;;;8.52;;
59486;SDS011;45298;54.918;73.504;2022-08-27T07:24:40;22.50;;;8.45;;
59486;SDS011;45298;54.918;73.504;2022-08-27T07:27:09;22.05;;;9.43;;
59486;SDS011;45298;54.918;73.504;2022-08-27T07:29:38;37.35;;;9.52;;
59486;SDS011;45298;54.918;73.504;2022-08-27T07:32:07;31.30;;;9.73;;
59486;SDS011;45298;54.918;73.504;2022-08-27T07:34:36;36.92;;;10.32;;
59486;SDS011;45298;54.918;73.504;2022-08-27T07:37:05;34.60;;;9.95;;
59486;SDS011;45298;54.918;73.504;2022-08-27T07:39:34;42.72;;;10.73;;
59486;SDS011;45298;54.918;73.504;2022-08-27T07:42:03;25.77;;;8.30;;
59486;SDS011;45298;54.918;73.504;2022-08-27T07:44:50;23.77;;;8.73;;
59486;SDS011;45298;54.918;73.504;2022-08-27T07:47:18;19.60;;;8.00;;
59486;SDS011;45298;54.918;73.504;2022-08-27T07:49:47;22.27;;;8.00;;
59486;SDS011;45298;54.918;73.504;2022-08-27T07:52:16;17.55;;;8.52;;
59486;SDS011;45298;54.918;73.504;2022-08-27T07:54:49;17.60;;;7.35;;
59486;SDS011;45298;54.918;73.504;2022-08-27T07:57:18;18.40;;;6.55;;
59486;SDS011;45298;54.918;73.504;2022-08-27T07:59:47;13.30;;;5.45;;
59486;SDS011;45298;54.918;73.504;2022-08-27T08:02:17;15.07;;;5.90;;
59486;SDS011;45298;54.918;73.504;2022-08-27T08:04:47;14.65;;;6.15;;
59486;SDS011;45298;54.918;73.504;2022-08-27T08:07:15;21.02;;;6.32;;
59486;SDS011;45298;54.918;73.504;2022-08-27T08:09:44;32.80;;;7.50;;
59486;SDS011;45298;54.918;73.504;2022-08-27T08:12:13;23.02;;;6.03;;
59486;SDS011;45298;54.918;73.504;2022-08-27T08:14:42;21.67;;;5.72;;
59486;SDS011;45298;54.918;73.504;2022-08-27T08:17:11;13.23;;;4.90;;
59486;SDS011;45298;54.918;73.504;2022-08-27T08:19:43;15.55;;;4.75;;
59486;SDS011;45298;54.918;73.504;2022-08-27T08:22:33;7.70;;;4.55;;
59486;SDS011;45298;54.918;73.504;2022-08-27T08:25:02;11.10;;;4.85;;
59486;SDS011;45298;54.918;73.504;2022-08-27T08:27:39;20.67;;;5.50;;
59486;SDS011;45298;54.918;73.504;2022-08-27T08:30:09;35.85;;;7.25;;
59486;SDS011;45298;54.918;73.504;2022-08-27T08:32:39;14.38;;;5.53;;
59486;SDS011;45298;54.918;73.504;2022-08-27T08:35:08;13.25;;;5.60;;
59486;SDS011;45298;54.918;73.504;2022-08-27T08:37:41;9.40;;;4.60;;
59486;SDS011;45298;54.918;73.504;2022-08-27T08:40:14;28.05;;;5.20;;
59486;SDS011;45298;54.918;73.504;2022-08-27T08:42:59;23.15;;;6.20;;
59486;SDS011;45298;54.918;73.504;2022-08-27T08:45:30;12.15;;;4.68;;
59486;SDS011;45298;54.918;73.504;2022-08-27T08:48:04;18.85;;;6.25;;
59486;SDS011;45298;54.918;73.504;2022-08-27T08:50:47;17.83;;;4.93;;
59486;SDS011;45298;54.918;73.504;2022-08-27T08:59:37;10.65;;;4.82;;
59486;SDS011;45298;54.918;73.504;2022-08-27T09:04:44;18.33;;;5.28;;
59486;SDS011;45298;54.918;73.504;2022-08-27T09:18:17;28.13;;;5.63;;
59486;SDS011;45298;54.918;73.504;2022-08-27T09:20:48;15.57;;;4.90;;
59486;SDS011;45298;54.918;73.504;2022-08-27T09:23:31;26.05;;;5.60;;
59486;SDS011;45298;54.918;73.504;2022-08-27T09:26:21;18.33;;;5.50;;
59486;SDS011;45298;54.918;73.504;2022-08-27T09:28:55;14.07;;;4.70;;
59486;SDS011;45298;54.918;73.504;2022-08-27T09:31:47;22.30;;;4.55;;
59486;SDS011;45298;54.918;73.504;2022-08-27T09:34:22;12.90;;;4.63;;
59486;SDS011;45298;54.918;73.504;2022-08-27T09:36:56;13.40;;;3.67;;
59486;SDS011;45298;54.918;73.504;2022-08-27T09:39:33;19.48;;;4.20;;
59486;SDS011;45298;54.918;73.504;2022-08-27T09:42:17;14.93;;;4.38;;
59486;SDS011;45298;54.918;73.504;2022-08-27T09:45:10;11.68;;;3.58;;
59486;SDS011;45298;54.918;73.504;2022-08-27T09:47:45;12.10;;;5.28;;
59486;SDS011;45298;54.918;73.504;2022-08-27T09:50:17;20.70;;;4.90;;
59486;SDS011;45298;54.918;73.504;2022-08-27T09:52:56;41.22;;;12.50;;
59486;SDS011;45298;54.918;73.504;2022-08-27T09:55:27;32.72;;;11.90;;
59486;SDS011;45298;54.918;73.504;2022-08-27T09:58:01;35.90;;;14.52;;
59486;SDS011;45298;54.918;73.504;2022-08-27T10:00:34;31.17;;;15.18;;
59486;SDS011;45298;54.918;73.504;2022-08-27T10:03:06;7.53;;;3.15;;
59486;SDS011;45298;54.918;73.504;2022-08-27T10:05:38;24.92;;;10.07;;
59486;SDS011;45298;54.918;73.504;2022-08-27T10:11:03;10.93;;;2.42;;
59486;SDS011;45298;54.918;73.504;2022-08-27T10:13:57;12.20;;;3.20;;
59486;SDS011;45298;54.918;73.504;2022-08-27T10:19:28;9.50;;;2.80;;
59486;SDS011;45298;54.918;73.504;2022-08-27T10:25:53;14.52;;;3.67;;
59486;SDS011;45298;54.918;73.504;2022-08-27T10:31:24;17.48;;;7.93;;
59486;SDS011;45298;54.918;73.504;2022-08-27T10:34:38;24.02;;;3.83;;
59486;SDS011;45298;54.918;73.504;2022-08-27T10:42:46;26.42;;;5.00;;
59486;SDS011;45298;54.918;73.504;2022-08-27T10:45:36;26.27;;;7.15;;
59486;SDS011;45298;54.918;73.504;2022-08-27T10:48:34;16.63;;;4.53;;
59486;SDS011;45298;54.918;73.504;2022-08-27T10:53:50;5.57;;;2.97;;
59486;SDS011;45298;54.918;73.504;2022-08-27T11:02:12;12.15;;;6.70;;
59486;SDS011;45298;54.918;73.504;2022-08-27T11:05:15;14.40;;;4.00;;
59486;SDS011;45298;54.918;73.504;2022-08-27T11:07:48;20.08;;;4.75;;
59486;SDS011;45298;54.918;73.504;2022-08-27T11:10:37;17.23;;;4.32;;
59486;SDS011;45298;54.918;73.504;2022-08-27T11:13:11;8.27;;;3.30;;
59486;SDS011;45298;54.918;73.504;2022-08-27T11:16:01;9.57;;;4.20;;
59486;SDS011;45298;54.918;73.504;2022-08-27T11:27:05;12.65;;;4.38;;
59486;SDS011;45298;54.918;73.504;2022-08-27T11:29:47;13.90;;;4.25;;
59486;SDS011;45298;54.918;73.504;2022-08-27T11:35:12;5.65;;;3.42;;
59486;SDS011;45298;54.918;73.504;2022-08-27T11:43:46;21.00;;;12.20;;
59486;SDS011;45298;54.918;73.504;2022-08-27T11:46:23;12.60;;;7.35;;
59486;SDS011;45298;54.918;73.504;2022-08-27T11:49:20;17.50;;;6.25;;
59486;SDS011;45298;54.918;73.504;2022-08-27T11:51:55;7.35;;;2.65;;
59486;SDS011;45298;54.918;73.504;2022-08-27T11:54:28;11.40;;;3.45;;
59486;SDS011;45298;54.918;73.504;2022-08-27T11:56:59;12.20;;;6.63;;
59486;SDS011;45298;54.918;73.504;2022-08-27T11:59:32;11.98;;;6.13;;
59486;SDS011;45298;54.918;73.504;2022-08-27T12:02:12;4.32;;;2.20;;
59486;SDS011;45298;54.918;73.504;2022-08-27T12:04:53;9.73;;;3.63;;
59486;SDS011;45298;54.918;73.504;2022-08-27T12:07:38;12.15;;;2.90;;
59486;SDS011;45298;54.918;73.504;2022-08-27T12:15:41;3.25;;;2.00;;
59486;SDS011;45298;54.918;73.504;2022-08-27T12:24:42;30.52;;;8.00;;
59486;SDS011;45298;54.918;73.504;2022-08-27T12:32:47;11.30;;;3.80;;
59486;SDS011;45298;54.918;73.504;2022-08-27T12:43:36;15.97;;;4.80;;
59486;SDS011;45298;54.918;73.504;2022-08-27T12:46:14;26.23;;;12.43;;
59486;SDS011;45298;54.918;73.504;2022-08-27T12:48:56;58.33;;;26.55;;
59486;SDS011;45298;54.918;73.504;2022-08-27T12:51:47;14.23;;;6.25;;
59486;SDS011;45298;54.918;73.504;2022-08-27T12:57:23;14.10;;;7.97;;
59486;SDS011;45298;54.918;73.504;2022-08-27T13:00:11;7.43;;;4.32;;
59486;SDS011;45298;54.918;73.504;2022-08-27T13:02:59;12.07;;;4.57;;
59486;SDS011;45298;54.918;73.504;2022-08-27T13:05:53;20.75;;;8.95;;
59486;SDS011;45298;54.918;73.504;2022-08-27T13:08:29;11.65;;;3.97;;
59486;SDS011;45298;54.918;73.504;2022-08-27T13:11:07;8.15;;;3.28;;
59486;SDS011;45298;54.918;73.504;2022-08-27T13:14:09;10.90;;;3.70;;
59486;SDS011;45298;54.918;73.504;2022-08-27T13:16:45;12.02;;;4.32;;
59486;SDS011;45298;54.918;73.504;2022-08-27T13:21:59;17.25;;;8.05;;
59486;SDS011;45298;54.918;73.504;2022-08-27T13:27:04;11.52;;;4.30;;
59486;SDS011;45298;54.918;73.504;2022-08-27T13:29:33;7.85;;;3.90;;
59486;SDS011;45298;54.918;73.504;2022-08-27T13:32:10;10.32;;;3.70;;
59486;SDS011;45298;54.918;73.504;2022-08-27T13:34:46;14.07;;;3.80;;
59486;SDS011;45298;54.918;73.504;2022-08-27T13:37:24;13.93;;;5.50;;
59486;SDS011;45298;54.918;73.504;2022-08-27T13:40:08;13.77;;;6.70;;
59486;SDS011;45298;54.918;73.504;2022-08-27T13:43:16;71.78;;;43.30;;
59486;SDS011;45298;54.918;73.504;2022-08-27T13:45:49;64.55;;;39.15;;
59486;SDS011;45298;54.918;73.504;2022-08-27T13:48:29;70.03;;;45.35;;
59486;SDS011;45298;54.918;73.504;2022-08-27T13:50:59;71.22;;;44.17;;
59486;SDS011;45298;54.918;73.504;2022-08-27T13:53:30;24.67;;;14.07;;
59486;SDS011;45298;54.918;73.504;2022-08-27T13:56:23;18.77;;;5.72;;
59486;SDS011;45298;54.918;73.504;2022-08-27T13:59:08;19.50;;;7.13;;
59486;SDS011;45298;54.918;73.504;2022-08-27T14:07:41;38.17;;;18.30;;
59486;SDS011;45298;54.918;73.504;2022-08-27T14:12:52;38.42;;;20.98;;
59486;SDS011;45298;54.918;73.504;2022-08-27T14:18:02;44.42;;;26.95;;
59486;SDS011;45298;54.918;73.504;2022-08-27T14:20:33;24.40;;;15.40;;
59486;SDS011;45298;54.918;73.504;2022-08-27T14:23:05;33.25;;;15.80;;
59486;SDS011;45298;54.918;73.504;2022-08-27T14:25:34;28.35;;;11.27;;
59486;SDS011;45298;54.918;73.504;2022-08-27T14:28:02;25.40;;;7.70;;
59486;SDS011;45298;54.918;73.504;2022-08-27T14:30:32;23.52;;;9.38;;
59486;SDS011;45298;54.918;73.504;2022-08-27T14:33:01;56.85;;;19.30;;
59486;SDS011;45298;54.918;73.504;2022-08-27T14:35:31;47.63;;;14.05;;
59486;SDS011;45298;54.918;73.504;2022-08-27T14:38:12;29.98;;;11.55;;
59486;SDS011;45298;54.918;73.504;2022-08-27T14:40:51;27.15;;;12.25;;
59486;SDS011;45298;54.918;73.504;2022-08-27T14:43:21;20.42;;;10.63;;
59486;SDS011;45298;54.918;73.504;2022-08-27T14:45:50;26.75;;;12.95;;
59486;SDS011;45298;54.918;73.504;2022-08-27T14:48:21;35.47;;;15.50;;
59486;SDS011;45298;54.918;73.504;2022-08-27T14:51:01;38.25;;;17.90;;
59486;SDS011;45298;54.918;73.504;2022-08-27T14:53:37;42.47;;;21.85;;
59486;SDS011;45298;54.918;73.504;2022-08-27T14:56:06;35.42;;;17.83;;
59486;SDS011;45298;54.918;73.504;2022-08-27T14:58:35;35.45;;;15.85;;
59486;SDS011;45298;54.918;73.504;2022-08-27T15:01:03;28.80;;;13.30;;
59486;SDS011;45298;54.918;73.504;2022-08-27T15:03:33;27.88;;;12.93;;
59486;SDS011;45298;54.918;73.504;2022-08-27T15:06:12;28.92;;;13.65;;
59486;SDS011;45298;54.918;73.504;2022-08-27T15:08:42;22.88;;;12.75;;
59486;SDS011;45298;54.918;73.504;2022-08-27T15:11:14;24.42;;;12.15;;
59486;SDS011;45298;54.918;73.504;2022-08-27T15:13:45;21.15;;;10.40;;
59486;SDS011;45298;54.918;73.504;2022-08-27T15:16:35;18.10;;;9.50;;
59486;SDS011;45298;54.918;73.504;2022-08-27T15:19:06;18.50;;;9.10;;
59486;SDS011;45298;54.918;73.504;2022-08-27T15:21:36;18.65;;;9.32;;
59486;SDS011;45298;54.918;73.504;2022-08-27T15:26:51;19.15;;;9.10;;
59486;SDS011;45298;54.918;73.504;2022-08-27T15:29:20;24.17;;;9.48;;
59486;SDS011;45298;54.918;73.504;2022-08-27T15:31:49;19.55;;;9.60;;
59486;SDS011;45298;54.918;73.504;2022-08-27T15:34:21;25.60;;;10.05;;
59486;SDS011;45298;54.918;73.504;2022-08-27T15:36:49;18.88;;;9.55;;
59486;SDS011;45298;54.918;73.504;2022-08-27T15:39:18;24.95;;;9.95;;
59486;SDS011;45298;54.918;73.504;2022-08-27T15:41:47;18.65;;;7.95;;
59486;SDS011;45298;54.918;73.504;2022-08-27T15:44:32;15.82;;;7.30;;
59486;SDS011;45298;54.918;73.504;2022-08-27T15:47:01;17.05;;;7.80;;
59486;SDS011;45298;54.918;73.504;2022-08-27T15:49:30;23.75;;;7.35;;
59486;SDS011;45298;54.918;73.504;2022-08-27T15:51:59;61.70;;;30.67;;
59486;SDS011;45298;54.918;73.504;2022-08-27T15:54:29;23.85;;;12.80;;
59486;SDS011;45298;54.918;73.504;2022-08-27T15:56:58;46.47;;;22.90;;
59486;SDS011;45298;54.918;73.504;2022-08-27T15:59:27;24.23;;;9.98;;
59486;SDS011;45298;54.918;73.504;2022-08-27T16:01:56;31.73;;;10.65;;
59486;SDS011;45298;54.918;73.504;2022-08-27T16:04:25;28.60;;;11.38;;
59486;SDS011;45298;54.918;73.504;2022-08-27T16:06:55;33.10;;;11.32;;
59486;SDS011;45298;54.918;73.504;2022-08-27T16:09:24;24.27;;;12.18;;
59486;SDS011;45298;54.918;73.504;2022-08-27T16:11:53;20.42;;;8.88;;
59486;SDS011;45298;54.918;73.504;2022-08-27T16:14:21;21.55;;;10.52;;
59486;SDS011;45298;54.918;73.504;2022-08-27T16:16:50;31.55;;;12.00;;
59486;SDS011;45298;54.918;73.504;2022-08-27T16:19:19;29.88;;;11.35;;
59486;SDS011;45298;54.918;73.504;2022-08-27T16:21:48;19.83;;;10.18;;
59486;SDS011;45298;54.918;73.504;2022-08-27T16:24:21;24.75;;;10.63;;
59486;SDS011;45298;54.918;73.504;2022-08-27T16:26:49;29.20;;;10.35;;
59486;SDS011;45298;54.918;73.504;2022-08-27T16:29:19;16.90;;;8.90;;
59486;SDS011;45298;54.918;73.504;2022-08-27T16:31:49;17.55;;;9.05;;
59486;SDS011;45298;54.918;73.504;2022-08-27T16:34:20;19.60;;;8.18;;
59486;SDS011;45298;54.918;73.504;2022-08-27T16:36:53;22.45;;;8.57;;
59486;SDS011;45298;54.918;73.504;2022-08-27T16:39:22;20.90;;;9.18;;
59486;SDS011;45298;54.918;73.504;2022-08-27T16:42:00;17.45;;;8.50;;
59486;SDS011;45298;54.918;73.504;2022-08-27T16:44:30;20.85;;;8.75;;